Geraldton Greenstone Regional Airport
CYGQ : now visible

Airfield :











YOU CAN JOIN US ON...

 
LOGIN :

Register | Disclaimer

   EN    FR    IT 

 









Legend :    VFR   Marginal VFR   IFR   Intensive IFR   Very Intensive IFR
Visi :
Ceiling :
>= 8 km
>= 3000ft
5 to 8 km
1000 to 3000 ft
1500m to 5 km
500 to 1000 ft
800 to 1500m
200 to 500 ft
< 800m
< 200 ft
Symbols :   Thunderstorms  Fog  Heavy snow  Heavy precipitations  Wind > 20 kt






- Airport Elevation : 1144 ft
- IATA code : YGQ


CYGQ - Geraldton Greenstone Regional

CURRENT METAR :
  • 210100Z 19007KT 1/2SM SN DRSN FEW008 VV015 M05/M06 A2911 RMK SF1SN7 /S02/ SLP888

EXPIRED METARs :
  • 210044Z 19009KT 3/8SM SN DRSN OVC016 M05/M06 A2912 RMK SN6SC2 SLP893
  • 210024Z 19010KT 1/4SM SN DRSN VV009 M05/M06 A2913 RMK SN8 SLP895
  • 210000Z 18011G17KT 1/4SM -SN BLSN SCT009 OVC014 M05/M07 A2914 RMK BLSN2SF1SC5 VIS VRB 0-1/2 /S02/ SLP897
  • 202300Z 17009G16KT 1/4SM -SN BLSN SCT007 BKN012 OVC024 M05/M07 A2918 RMK BLSN2SF1SC4SC1 VIS VRB 0-1/2 PRESFR SLP911
  • 202229Z CCA 18013G20KT 1/2SM -SN BLSN OVC014 M05/M08 A2921 RMK SN2SC6 SLP922
  • 202221Z 18012G26KT 1 1/2SM -SN DRSN OVC017 M05/M08 A2921 RMK SN2SC6 VIS VRB 1-2 PRESFR SLP922

TAF AMD TAF CYGQ
Valid from the 20 at 23:00 until the 21 at 08:00 UTC


202307Z 2023/2108 17012G22KT 1/2SM SHSN BLSN VV005
TEMPO 2023/2103 3SM -SN OVC012
FM210300 21008KT 11/2SM -SHSN VV008
TEMPO 2103/2108 6SM -SN OVC015 RMK NXT FCST BY 210200Z
CZWG FIR / North America



MET'MAP, your aeronautical weather chart ! - Copyright ORBIFLY December 2007 - Disclaimer

ORBIFLY MET'MAP TEAM :

Programming & Development : Alexandra Zaïnal
Concept & original design : Baudouin d'Aumeries
Assistance for programming : Marc-Olivier Méhu
Technical & hardware support : Manuel Goepfert

Contact : metmap@orbifly.com




SOURCES & CREDITS :

   NOAA       Earth
Advisory